sensor_id;sensor_type;location;lat;lon;timestamp;P1;durP1;ratioP1;P2;durP2;ratioP2
20318;SDS011;10317;47.254;11.314;2023-07-09T00:02:25;3.33;;;2.90;;
20318;SDS011;10317;47.254;11.314;2023-07-09T00:04:52;5.70;;;3.53;;
20318;SDS011;10317;47.254;11.314;2023-07-09T00:07:27;4.18;;;2.83;;
20318;SDS011;10317;47.254;11.314;2023-07-09T00:09:55;11.15;;;3.80;;
20318;SDS011;10317;47.254;11.314;2023-07-09T00:12:21;6.28;;;3.38;;
20318;SDS011;10317;47.254;11.314;2023-07-09T00:14:47;5.35;;;3.22;;
20318;SDS011;10317;47.254;11.314;2023-07-09T00:19:45;7.15;;;4.00;;
20318;SDS011;10317;47.254;11.314;2023-07-09T00:22:14;5.30;;;3.30;;
20318;SDS011;10317;47.254;11.314;2023-07-09T00:24:42;5.95;;;3.50;;
20318;SDS011;10317;47.254;11.314;2023-07-09T00:27:09;3.53;;;3.22;;
20318;SDS011;10317;47.254;11.314;2023-07-09T00:29:36;6.10;;;3.70;;
20318;SDS011;10317;47.254;11.314;2023-07-09T00:32:02;2.95;;;2.72;;
20318;SDS011;10317;47.254;11.314;2023-07-09T00:34:28;4.43;;;3.05;;
20318;SDS011;10317;47.254;11.314;2023-07-09T00:36:53;4.07;;;2.67;;
20318;SDS011;10317;47.254;11.314;2023-07-09T00:39:19;6.82;;;3.15;;
20318;SDS011;10317;47.254;11.314;2023-07-09T00:41:47;6.75;;;3.38;;
20318;SDS011;10317;47.254;11.314;2023-07-09T00:49:39;3.40;;;2.50;;
20318;SDS011;10317;47.254;11.314;2023-07-09T00:52:28;4.45;;;3.35;;
20318;SDS011;10317;47.254;11.314;2023-07-09T00:55:00;4.43;;;3.03;;
20318;SDS011;10317;47.254;11.314;2023-07-09T00:57:30;6.82;;;3.90;;
20318;SDS011;10317;47.254;11.314;2023-07-09T00:59:57;4.28;;;3.40;;
20318;SDS011;10317;47.254;11.314;2023-07-09T01:02:34;4.53;;;2.80;;
20318;SDS011;10317;47.254;11.314;2023-07-09T01:05:04;5.75;;;3.70;;
20318;SDS011;10317;47.254;11.314;2023-07-09T01:07:31;5.80;;;3.00;;
20318;SDS011;10317;47.254;11.314;2023-07-09T01:09:57;6.72;;;3.55;;
20318;SDS011;10317;47.254;11.314;2023-07-09T01:12:24;4.40;;;3.15;;
20318;SDS011;10317;47.254;11.314;2023-07-09T01:14:51;3.33;;;2.92;;
20318;SDS011;10317;47.254;11.314;2023-07-09T01:17:23;5.22;;;3.53;;
20318;SDS011;10317;47.254;11.314;2023-07-09T01:19:52;8.40;;;2.85;;
20318;SDS011;10317;47.254;11.314;2023-07-09T01:22:20;4.72;;;2.55;;
20318;SDS011;10317;47.254;11.314;2023-07-09T01:27:38;4.50;;;3.17;;
20318;SDS011;10317;47.254;11.314;2023-07-09T01:30:07;3.70;;;3.30;;
20318;SDS011;10317;47.254;11.314;2023-07-09T01:32:36;3.80;;;3.40;;
20318;SDS011;10317;47.254;11.314;2023-07-09T01:35:03;3.58;;;2.80;;
20318;SDS011;10317;47.254;11.314;2023-07-09T01:37:32;5.07;;;3.20;;
20318;SDS011;10317;47.254;11.314;2023-07-09T01:40:00;4.97;;;3.40;;
20318;SDS011;10317;47.254;11.314;2023-07-09T01:42:29;3.55;;;2.72;;
20318;SDS011;10317;47.254;11.314;2023-07-09T01:44:55;4.90;;;3.25;;
20318;SDS011;10317;47.254;11.314;2023-07-09T01:47:21;4.90;;;3.90;;
20318;SDS011;10317;47.254;11.314;2023-07-09T01:49:49;6.72;;;3.55;;
20318;SDS011;10317;47.254;11.314;2023-07-09T01:52:16;5.25;;;3.72;;
20318;SDS011;10317;47.254;11.314;2023-07-09T01:54:44;3.30;;;3.05;;
20318;SDS011;10317;47.254;11.314;2023-07-09T01:57:21;2.85;;;2.60;;
20318;SDS011;10317;47.254;11.314;2023-07-09T01:59:52;7.30;;;3.17;;
20318;SDS011;10317;47.254;11.314;2023-07-09T02:02:22;10.48;;;3.75;;
20318;SDS011;10317;47.254;11.314;2023-07-09T02:04:51;6.75;;;3.47;;
20318;SDS011;10317;47.254;11.314;2023-07-09T02:07:19;9.05;;;3.65;;
20318;SDS011;10317;47.254;11.314;2023-07-09T02:09:45;4.30;;;3.10;;
20318;SDS011;10317;47.254;11.314;2023-07-09T02:12:12;3.22;;;2.88;;
20318;SDS011;10317;47.254;11.314;2023-07-09T02:14:39;4.70;;;3.00;;
20318;SDS011;10317;47.254;11.314;2023-07-09T02:17:06;4.68;;;2.85;;
20318;SDS011;10317;47.254;11.314;2023-07-09T02:19:32;3.10;;;2.80;;
20318;SDS011;10317;47.254;11.314;2023-07-09T02:21:57;5.03;;;3.33;;
20318;SDS011;10317;47.254;11.314;2023-07-09T02:24:23;3.45;;;3.15;;
20318;SDS011;10317;47.254;11.314;2023-07-09T02:27:00;4.88;;;2.70;;
20318;SDS011;10317;47.254;11.314;2023-07-09T02:29:29;5.32;;;3.40;;
20318;SDS011;10317;47.254;11.314;2023-07-09T02:31:56;4.90;;;3.72;;
20318;SDS011;10317;47.254;11.314;2023-07-09T02:34:22;5.82;;;3.67;;
20318;SDS011;10317;47.254;11.314;2023-07-09T02:36:54;3.88;;;3.50;;
20318;SDS011;10317;47.254;11.314;2023-07-09T02:39:21;4.32;;;3.35;;
20318;SDS011;10317;47.254;11.314;2023-07-09T02:41:48;3.90;;;3.17;;
20318;SDS011;10317;47.254;11.314;2023-07-09T02:44:14;3.22;;;2.72;;
20318;SDS011;10317;47.254;11.314;2023-07-09T02:46:40;3.72;;;3.33;;
20318;SDS011;10317;47.254;11.314;2023-07-09T02:49:07;4.45;;;3.88;;
20318;SDS011;10317;47.254;11.314;2023-07-09T02:51:35;5.05;;;2.80;;
20318;SDS011;10317;47.254;11.314;2023-07-09T02:54:01;4.07;;;3.20;;
20318;SDS011;10317;47.254;11.314;2023-07-09T02:56:28;3.15;;;2.85;;
20318;SDS011;10317;47.254;11.314;2023-07-09T02:58:54;3.75;;;2.72;;
20318;SDS011;10317;47.254;11.314;2023-07-09T03:01:20;3.53;;;3.22;;
20318;SDS011;10317;47.254;11.314;2023-07-09T03:03:56;4.35;;;3.63;;
20318;SDS011;10317;47.254;11.314;2023-07-09T03:06:24;3.95;;;3.55;;
20318;SDS011;10317;47.254;11.314;2023-07-09T03:08:51;4.18;;;3.15;;
20318;SDS011;10317;47.254;11.314;2023-07-09T03:11:18;4.50;;;3.17;;
20318;SDS011;10317;47.254;11.314;2023-07-09T03:13:44;5.65;;;3.20;;
20318;SDS011;10317;47.254;11.314;2023-07-09T03:16:11;3.75;;;3.28;;
20318;SDS011;10317;47.254;11.314;2023-07-09T03:18:37;5.43;;;3.70;;
20318;SDS011;10317;47.254;11.314;2023-07-09T03:21:03;5.40;;;3.40;;
20318;SDS011;10317;47.254;11.314;2023-07-09T03:23:29;4.18;;;3.20;;
20318;SDS011;10317;47.254;11.314;2023-07-09T03:25:55;5.10;;;3.40;;
20318;SDS011;10317;47.254;11.314;2023-07-09T03:28:20;5.22;;;3.25;;
20318;SDS011;10317;47.254;11.314;2023-07-09T03:30:47;6.57;;;3.40;;
20318;SDS011;10317;47.254;11.314;2023-07-09T03:33:14;8.40;;;3.58;;
20318;SDS011;10317;47.254;11.314;2023-07-09T03:35:41;6.25;;;3.03;;
20318;SDS011;10317;47.254;11.314;2023-07-09T03:38:08;5.43;;;3.80;;
20318;SDS011;10317;47.254;11.314;2023-07-09T03:40:35;5.35;;;4.10;;
20318;SDS011;10317;47.254;11.314;2023-07-09T03:43:02;7.72;;;4.05;;
20318;SDS011;10317;47.254;11.314;2023-07-09T03:45:27;8.95;;;5.25;;
20318;SDS011;10317;47.254;11.314;2023-07-09T03:47:53;7.95;;;4.53;;
20318;SDS011;10317;47.254;11.314;2023-07-09T03:50:18;6.25;;;3.88;;
20318;SDS011;10317;47.254;11.314;2023-07-09T03:52:44;14.10;;;4.20;;
20318;SDS011;10317;47.254;11.314;2023-07-09T03:55:10;6.45;;;4.18;;
20318;SDS011;10317;47.254;11.314;2023-07-09T03:57:35;12.32;;;6.30;;
20318;SDS011;10317;47.254;11.314;2023-07-09T04:00:02;8.77;;;5.68;;
20318;SDS011;10317;47.254;11.314;2023-07-09T04:02:30;9.82;;;6.38;;
20318;SDS011;10317;47.254;11.314;2023-07-09T04:04:56;9.63;;;5.80;;
20318;SDS011;10317;47.254;11.314;2023-07-09T04:07:22;10.50;;;6.38;;
20318;SDS011;10317;47.254;11.314;2023-07-09T04:09:48;8.43;;;5.32;;
20318;SDS011;10317;47.254;11.314;2023-07-09T04:12:14;6.90;;;5.55;;
20318;SDS011;10317;47.254;11.314;2023-07-09T04:14:39;7.68;;;5.75;;
20318;SDS011;10317;47.254;11.314;2023-07-09T04:17:08;7.05;;;5.07;;
20318;SDS011;10317;47.254;11.314;2023-07-09T04:19:33;6.82;;;5.18;;
20318;SDS011;10317;47.254;11.314;2023-07-09T04:21:59;7.38;;;4.63;;
20318;SDS011;10317;47.254;11.314;2023-07-09T04:24:24;8.68;;;5.70;;
20318;SDS011;10317;47.254;11.314;2023-07-09T04:26:52;4.60;;;4.20;;
20318;SDS011;10317;47.254;11.314;2023-07-09T04:29:21;8.82;;;4.10;;
20318;SDS011;10317;47.254;11.314;2023-07-09T04:31:48;5.10;;;4.60;;
20318;SDS011;10317;47.254;11.314;2023-07-09T04:34:13;4.63;;;4.00;;
20318;SDS011;10317;47.254;11.314;2023-07-09T04:36:39;7.63;;;4.25;;
20318;SDS011;10317;47.254;11.314;2023-07-09T04:39:05;7.10;;;4.13;;
20318;SDS011;10317;47.254;11.314;2023-07-09T04:41:31;7.55;;;4.72;;
20318;SDS011;10317;47.254;11.314;2023-07-09T04:43:57;6.32;;;4.50;;
20318;SDS011;10317;47.254;11.314;2023-07-09T04:46:23;9.73;;;4.30;;
20318;SDS011;10317;47.254;11.314;2023-07-09T04:48:49;6.63;;;4.50;;
20318;SDS011;10317;47.254;11.314;2023-07-09T04:51:15;10.40;;;5.93;;
20318;SDS011;10317;47.254;11.314;2023-07-09T04:53:41;10.80;;;4.50;;
20318;SDS011;10317;47.254;11.314;2023-07-09T04:56:07;6.70;;;5.55;;
20318;SDS011;10317;47.254;11.314;2023-07-09T04:58:34;8.52;;;5.45;;
20318;SDS011;10317;47.254;11.314;2023-07-09T05:01:00;5.63;;;4.85;;
20318;SDS011;10317;47.254;11.314;2023-07-09T05:03:26;4.03;;;3.67;;
20318;SDS011;10317;47.254;11.314;2023-07-09T05:05:52;5.90;;;4.68;;
20318;SDS011;10317;47.254;11.314;2023-07-09T05:08:17;4.90;;;3.95;;
20318;SDS011;10317;47.254;11.314;2023-07-09T05:10:48;4.97;;;4.00;;
20318;SDS011;10317;47.254;11.314;2023-07-09T05:13:16;8.60;;;6.22;;
20318;SDS011;10317;47.254;11.314;2023-07-09T05:15:43;5.55;;;4.60;;
20318;SDS011;10317;47.254;11.314;2023-07-09T05:18:11;5.53;;;4.03;;
20318;SDS011;10317;47.254;11.314;2023-07-09T05:20:37;5.07;;;3.92;;
20318;SDS011;10317;47.254;11.314;2023-07-09T05:23:03;4.82;;;4.03;;
20318;SDS011;10317;47.254;11.314;2023-07-09T05:25:29;6.43;;;4.32;;
20318;SDS011;10317;47.254;11.314;2023-07-09T05:27:56;9.60;;;4.75;;
20318;SDS011;10317;47.254;11.314;2023-07-09T05:30:22;4.75;;;4.05;;
20318;SDS011;10317;47.254;11.314;2023-07-09T05:32:47;8.95;;;4.63;;
20318;SDS011;10317;47.254;11.314;2023-07-09T05:35:13;4.50;;;4.00;;
20318;SDS011;10317;47.254;11.314;2023-07-09T05:37:39;8.63;;;4.65;;
20318;SDS011;10317;47.254;11.314;2023-07-09T05:40:05;8.70;;;4.43;;
20318;SDS011;10317;47.254;11.314;2023-07-09T05:42:32;5.93;;;4.05;;
20318;SDS011;10317;47.254;11.314;2023-07-09T05:44:58;6.47;;;4.50;;
20318;SDS011;10317;47.254;11.314;2023-07-09T05:47:24;6.28;;;5.35;;
20318;SDS011;10317;47.254;11.314;2023-07-09T05:49:50;7.70;;;4.40;;
20318;SDS011;10317;47.254;11.314;2023-07-09T05:52:16;6.50;;;5.50;;
20318;SDS011;10317;47.254;11.314;2023-07-09T05:54:43;10.15;;;4.85;;
20318;SDS011;10317;47.254;11.314;2023-07-09T05:57:09;10.05;;;5.78;;
20318;SDS011;10317;47.254;11.314;2023-07-09T05:59:35;6.07;;;4.43;;
20318;SDS011;10317;47.254;11.314;2023-07-09T06:02:01;8.63;;;4.68;;
20318;SDS011;10317;47.254;11.314;2023-07-09T06:04:28;10.38;;;4.13;;
20318;SDS011;10317;47.254;11.314;2023-07-09T06:06:56;6.57;;;4.38;;
20318;SDS011;10317;47.254;11.314;2023-07-09T06:09:22;8.48;;;4.63;;
20318;SDS011;10317;47.254;11.314;2023-07-09T06:11:48;5.40;;;3.75;;
20318;SDS011;10317;47.254;11.314;2023-07-09T06:14:14;9.20;;;6.15;;
20318;SDS011;10317;47.254;11.314;2023-07-09T06:16:42;6.45;;;5.72;;
20318;SDS011;10317;47.254;11.314;2023-07-09T06:19:08;6.05;;;4.82;;
20318;SDS011;10317;47.254;11.314;2023-07-09T06:21:34;6.32;;;5.25;;
20318;SDS011;10317;47.254;11.314;2023-07-09T06:24:00;7.70;;;6.40;;
20318;SDS011;10317;47.254;11.314;2023-07-09T06:26:25;9.50;;;7.22;;
20318;SDS011;10317;47.254;11.314;2023-07-09T06:28:51;7.53;;;6.13;;
20318;SDS011;10317;47.254;11.314;2023-07-09T06:31:17;5.90;;;4.70;;
20318;SDS011;10317;47.254;11.314;2023-07-09T06:33:44;6.97;;;6.28;;
20318;SDS011;10317;47.254;11.314;2023-07-09T06:36:09;10.43;;;8.93;;
20318;SDS011;10317;47.254;11.314;2023-07-09T06:38:35;6.22;;;4.78;;
20318;SDS011;10317;47.254;11.314;2023-07-09T06:41:01;5.18;;;4.45;;
20318;SDS011;10317;47.254;11.314;2023-07-09T06:43:27;4.70;;;4.13;;
20318;SDS011;10317;47.254;11.314;2023-07-09T06:45:56;7.93;;;4.75;;
20318;SDS011;10317;47.254;11.314;2023-07-09T06:48:24;6.45;;;4.03;;
20318;SDS011;10317;47.254;11.314;2023-07-09T06:50:51;8.75;;;6.70;;
20318;SDS011;10317;47.254;11.314;2023-07-09T06:53:19;8.95;;;5.28;;
20318;SDS011;10317;47.254;11.314;2023-07-09T06:55:45;5.15;;;4.07;;
20318;SDS011;10317;47.254;11.314;2023-07-09T06:58:12;6.05;;;4.03;;
20318;SDS011;10317;47.254;11.314;2023-07-09T07:00:38;4.78;;;3.83;;
20318;SDS011;10317;47.254;11.314;2023-07-09T07:03:04;5.03;;;3.83;;
20318;SDS011;10317;47.254;11.314;2023-07-09T07:05:30;4.72;;;3.42;;
20318;SDS011;10317;47.254;11.314;2023-07-09T07:07:56;3.97;;;3.33;;
20318;SDS011;10317;47.254;11.314;2023-07-09T07:10:22;7.60;;;4.13;;
20318;SDS011;10317;47.254;11.314;2023-07-09T07:12:48;6.95;;;3.97;;
20318;SDS011;10317;47.254;11.314;2023-07-09T07:15:15;3.92;;;3.53;;
20318;SDS011;10317;47.254;11.314;2023-07-09T07:17:42;3.53;;;3.15;;
20318;SDS011;10317;47.254;11.314;2023-07-09T07:20:08;4.22;;;2.97;;
20318;SDS011;10317;47.254;11.314;2023-07-09T07:22:35;3.25;;;2.85;;
20318;SDS011;10317;47.254;11.314;2023-07-09T07:25:02;4.88;;;2.97;;
20318;SDS011;10317;47.254;11.314;2023-07-09T07:27:29;3.85;;;3.28;;
20318;SDS011;10317;47.254;11.314;2023-07-09T07:29:55;5.78;;;3.85;;
20318;SDS011;10317;47.254;11.314;2023-07-09T07:32:20;4.63;;;3.47;;
20318;SDS011;10317;47.254;11.314;2023-07-09T07:34:47;4.20;;;3.75;;
20318;SDS011;10317;47.254;11.314;2023-07-09T07:37:13;4.03;;;3.60;;
20318;SDS011;10317;47.254;11.314;2023-07-09T07:39:39;3.72;;;3.38;;
20318;SDS011;10317;47.254;11.314;2023-07-09T07:42:06;4.85;;;3.60;;
20318;SDS011;10317;47.254;11.314;2023-07-09T07:44:31;5.28;;;3.95;;
20318;SDS011;10317;47.254;11.314;2023-07-09T07:46:57;3.75;;;3.28;;
20318;SDS011;10317;47.254;11.314;2023-07-09T07:49:23;3.40;;;3.10;;
20318;SDS011;10317;47.254;11.314;2023-07-09T07:51:49;3.33;;;3.00;;
20318;SDS011;10317;47.254;11.314;2023-07-09T07:54:15;4.65;;;3.70;;
20318;SDS011;10317;47.254;11.314;2023-07-09T07:56:43;3.75;;;3.30;;
20318;SDS011;10317;47.254;11.314;2023-07-09T07:59:09;5.50;;;3.65;;
20318;SDS011;10317;47.254;11.314;2023-07-09T08:01:34;4.55;;;3.58;;
20318;SDS011;10317;47.254;11.314;2023-07-09T08:04:01;3.60;;;3.25;;
20318;SDS011;10317;47.254;11.314;2023-07-09T08:06:27;5.97;;;3.60;;
20318;SDS011;10317;47.254;11.314;2023-07-09T08:08:54;5.97;;;3.42;;
20318;SDS011;10317;47.254;11.314;2023-07-09T08:11:19;5.70;;;3.70;;
20318;SDS011;10317;47.254;11.314;2023-07-09T08:13:45;5.22;;;3.70;;
20318;SDS011;10317;47.254;11.314;2023-07-09T08:16:11;6.60;;;4.43;;
20318;SDS011;10317;47.254;11.314;2023-07-09T08:18:39;8.23;;;3.67;;
20318;SDS011;10317;47.254;11.314;2023-07-09T08:21:05;6.10;;;3.65;;
20318;SDS011;10317;47.254;11.314;2023-07-09T08:23:31;4.53;;;3.65;;
20318;SDS011;10317;47.254;11.314;2023-07-09T08:26:02;9.55;;;3.67;;
20318;SDS011;10317;47.254;11.314;2023-07-09T08:28:30;5.18;;;3.38;;
20318;SDS011;10317;47.254;11.314;2023-07-09T08:30:57;3.55;;;3.25;;
20318;SDS011;10317;47.254;11.314;2023-07-09T08:33:23;3.92;;;2.97;;
20318;SDS011;10317;47.254;11.314;2023-07-09T08:35:52;3.63;;;3.28;;
20318;SDS011;10317;47.254;11.314;2023-07-09T08:38:18;9.18;;;4.78;;
20318;SDS011;10317;47.254;11.314;2023-07-09T08:43:32;4.22;;;3.30;;
20318;SDS011;10317;47.254;11.314;2023-07-09T08:48:49;10.25;;;4.00;;
20318;SDS011;10317;47.254;11.314;2023-07-09T08:51:19;4.50;;;3.55;;
20318;SDS011;10317;47.254;11.314;2023-07-09T08:56:22;5.28;;;3.45;;
20318;SDS011;10317;47.254;11.314;2023-07-09T08:58:49;6.18;;;3.50;;
20318;SDS011;10317;47.254;11.314;2023-07-09T09:01:29;3.90;;;3.38;;
20318;SDS011;10317;47.254;11.314;2023-07-09T09:07:16;9.10;;;3.67;;
20318;SDS011;10317;47.254;11.314;2023-07-09T09:10:18;5.30;;;3.80;;
20318;SDS011;10317;47.254;11.314;2023-07-09T09:13:06;3.58;;;3.05;;
20318;SDS011;10317;47.254;11.314;2023-07-09T09:15:37;5.45;;;3.67;;
20318;SDS011;10317;47.254;11.314;2023-07-09T09:18:27;3.97;;;3.58;;
20318;SDS011;10317;47.254;11.314;2023-07-09T09:21:04;8.35;;;3.58;;
20318;SDS011;10317;47.254;11.314;2023-07-09T09:23:41;8.82;;;4.00;;
20318;SDS011;10317;47.254;11.314;2023-07-09T09:26:44;3.15;;;2.92;;
20318;SDS011;10317;47.254;11.314;2023-07-09T09:29:13;4.45;;;3.47;;
20318;SDS011;10317;47.254;11.314;2023-07-09T09:31:45;4.13;;;3.03;;
20318;SDS011;10317;47.254;11.314;2023-07-09T09:34:27;4.45;;;3.10;;
20318;SDS011;10317;47.254;11.314;2023-07-09T09:36:54;5.00;;;3.75;;
20318;SDS011;10317;47.254;11.314;2023-07-09T09:39:21;3.92;;;3.50;;
20318;SDS011;10317;47.254;11.314;2023-07-09T09:41:56;2.65;;;2.42;;
20318;SDS011;10317;47.254;11.314;2023-07-09T09:44:28;7.78;;;3.40;;
20318;SDS011;10317;47.254;11.314;2023-07-09T09:46:57;3.60;;;3.30;;
20318;SDS011;10317;47.254;11.314;2023-07-09T09:49:38;4.55;;;3.47;;
20318;SDS011;10317;47.254;11.314;2023-07-09T09:52:16;5.93;;;2.97;;
20318;SDS011;10317;47.254;11.314;2023-07-09T09:54:47;3.75;;;2.75;;
20318;SDS011;10317;47.254;11.314;2023-07-09T09:57:24;5.88;;;3.17;;
20318;SDS011;10317;47.254;11.314;2023-07-09T10:00:00;6.70;;;3.47;;
20318;SDS011;10317;47.254;11.314;2023-07-09T10:02:25;3.35;;;2.63;;
20318;SDS011;10317;47.254;11.314;2023-07-09T10:04:56;6.18;;;3.30;;
20318;SDS011;10317;47.254;11.314;2023-07-09T10:07:43;4.20;;;2.78;;
20318;SDS011;10317;47.254;11.314;2023-07-09T10:10:23;3.05;;;2.75;;
20318;SDS011;10317;47.254;11.314;2023-07-09T10:12:59;5.63;;;3.05;;
20318;SDS011;10317;47.254;11.314;2023-07-09T10:22:13;6.13;;;2.72;;
20318;SDS011;10317;47.254;11.314;2023-07-09T10:33:10;4.45;;;2.33;;
20318;SDS011;10317;47.254;11.314;2023-07-09T10:35:38;3.63;;;1.95;;
20318;SDS011;10317;47.254;11.314;2023-07-09T10:38:22;3.60;;;2.25;;
20318;SDS011;10317;47.254;11.314;2023-07-09T10:41:15;4.00;;;2.47;;
20318;SDS011;10317;47.254;11.314;2023-07-09T10:46:22;2.22;;;2.03;;
20318;SDS011;10317;47.254;11.314;2023-07-09T10:48:51;3.63;;;2.47;;
20318;SDS011;10317;47.254;11.314;2023-07-09T10:51:25;5.18;;;2.83;;
20318;SDS011;10317;47.254;11.314;2023-07-09T10:56:31;3.47;;;2.15;;
20318;SDS011;10317;47.254;11.314;2023-07-09T11:04:50;4.15;;;2.35;;
20318;SDS011;10317;47.254;11.314;2023-07-09T11:07:18;4.63;;;2.10;;
20318;SDS011;10317;47.254;11.314;2023-07-09T11:14:01;2.20;;;1.83;;
20318;SDS011;10317;47.254;11.314;2023-07-09T11:16:12;3.67;;;2.10;;
20318;SDS011;10317;47.254;11.314;2023-07-09T11:18:55;2.45;;;2.00;;
20318;SDS011;10317;47.254;11.314;2023-07-09T11:21:23;2.25;;;1.95;;
20318;SDS011;10317;47.254;11.314;2023-07-09T11:23:50;2.47;;;2.15;;
20318;SDS011;10317;47.254;11.314;2023-07-09T11:28:56;2.10;;;1.92;;
20318;SDS011;10317;47.254;11.314;2023-07-09T12:07:23;5.05;;;2.67;;
20318;SDS011;10317;47.254;11.314;2023-07-09T12:09:54;3.13;;;2.60;;
20318;SDS011;10317;47.254;11.314;2023-07-09T12:12:24;3.22;;;2.45;;
20318;SDS011;10317;47.254;11.314;2023-07-09T12:14:55;6.57;;;2.10;;
20318;SDS011;10317;47.254;11.314;2023-07-09T12:17:27;6.32;;;2.40;;
20318;SDS011;10317;47.254;11.314;2023-07-09T12:19:57;4.28;;;2.47;;
20318;SDS011;10317;47.254;11.314;2023-07-09T12:22:23;3.47;;;2.33;;
20318;SDS011;10317;47.254;11.314;2023-07-09T12:24:52;4.28;;;2.85;;
20318;SDS011;10317;47.254;11.314;2023-07-09T12:27:22;2.95;;;2.47;;
20318;SDS011;10317;47.254;11.314;2023-07-09T12:29:54;4.50;;;2.40;;
20318;SDS011;10317;47.254;11.314;2023-07-09T12:32:24;3.10;;;2.10;;
20318;SDS011;10317;47.254;11.314;2023-07-09T12:34:52;7.07;;;2.47;;
20318;SDS011;10317;47.254;11.314;2023-07-09T12:37:21;4.45;;;2.53;;
20318;SDS011;10317;47.254;11.314;2023-07-09T12:39:53;2.30;;;2.10;;
20318;SDS011;10317;47.254;11.314;2023-07-09T12:42:52;4.25;;;2.50;;
20318;SDS011;10317;47.254;11.314;2023-07-09T12:45:15;3.17;;;2.22;;
20318;SDS011;10317;47.254;11.314;2023-07-09T12:47:44;2.17;;;2.00;;
20318;SDS011;10317;47.254;11.314;2023-07-09T12:50:21;3.72;;;2.30;;
20318;SDS011;10317;47.254;11.314;2023-07-09T12:52:49;4.05;;;2.08;;
20318;SDS011;10317;47.254;11.314;2023-07-09T12:55:19;5.63;;;2.88;;
20318;SDS011;10317;47.254;11.314;2023-07-09T12:57:50;3.53;;;2.55;;
20318;SDS011;10317;47.254;11.314;2023-07-09T13:00:17;5.50;;;2.30;;
20318;SDS011;10317;47.254;11.314;2023-07-09T13:02:44;6.43;;;2.40;;
20318;SDS011;10317;47.254;11.314;2023-07-09T13:05:28;4.35;;;2.20;;
20318;SDS011;10317;47.254;11.314;2023-07-09T13:07:57;2.35;;;2.10;;
20318;SDS011;10317;47.254;11.314;2023-07-09T13:10:29;3.35;;;2.08;;
20318;SDS011;10317;47.254;11.314;2023-07-09T13:12:57;3.03;;;2.08;;
20318;SDS011;10317;47.254;11.314;2023-07-09T13:15:29;2.75;;;2.20;;
20318;SDS011;10317;47.254;11.314;2023-07-09T13:18:02;2.78;;;1.88;;
20318;SDS011;10317;47.254;11.314;2023-07-09T13:20:30;4.50;;;2.92;;
20318;SDS011;10317;47.254;11.314;2023-07-09T13:23:03;1.75;;;1.65;;
20318;SDS011;10317;47.254;11.314;2023-07-09T13:25:52;3.22;;;2.40;;
20318;SDS011;10317;47.254;11.314;2023-07-09T13:28:29;5.97;;;2.20;;
20318;SDS011;10317;47.254;11.314;2023-07-09T13:31:15;2.05;;;1.92;;
20318;SDS011;10317;47.254;11.314;2023-07-09T13:33:50;3.53;;;2.20;;
20318;SDS011;10317;47.254;11.314;2023-07-09T13:36:20;1.55;;;1.45;;
20318;SDS011;10317;47.254;11.314;2023-07-09T13:38:46;3.33;;;2.13;;
20318;SDS011;10317;47.254;11.314;2023-07-09T13:41:16;3.63;;;2.38;;
20318;SDS011;10317;47.254;11.314;2023-07-09T13:43:47;7.93;;;2.58;;
20318;SDS011;10317;47.254;11.314;2023-07-09T13:46:14;3.00;;;2.25;;
20318;SDS011;10317;47.254;11.314;2023-07-09T13:48:51;4.13;;;1.80;;
20318;SDS011;10317;47.254;11.314;2023-07-09T13:51:20;2.15;;;1.90;;
20318;SDS011;10317;47.254;11.314;2023-07-09T13:53:51;3.50;;;2.50;;
20318;SDS011;10317;47.254;11.314;2023-07-09T13:56:28;2.30;;;1.90;;
20318;SDS011;10317;47.254;11.314;2023-07-09T13:58:54;2.97;;;2.70;;
20318;SDS011;10317;47.254;11.314;2023-07-09T14:01:25;5.30;;;2.10;;
20318;SDS011;10317;47.254;11.314;2023-07-09T14:03:52;5.95;;;2.38;;
20318;SDS011;10317;47.254;11.314;2023-07-09T14:06:23;2.40;;;2.20;;
20318;SDS011;10317;47.254;11.314;2023-07-09T14:08:49;2.58;;;2.13;;
20318;SDS011;10317;47.254;11.314;2023-07-09T14:11:15;5.68;;;2.53;;
20318;SDS011;10317;47.254;11.314;2023-07-09T14:13:47;3.50;;;2.03;;
20318;SDS011;10317;47.254;11.314;2023-07-09T14:16:13;2.63;;;2.00;;
20318;SDS011;10317;47.254;11.314;2023-07-09T14:18:43;3.90;;;2.28;;
20318;SDS011;10317;47.254;11.314;2023-07-09T14:21:17;2.65;;;2.20;;
20318;SDS011;10317;47.254;11.314;2023-07-09T14:23:59;2.15;;;2.03;;
20318;SDS011;10317;47.254;11.314;2023-07-09T14:26:25;3.25;;;1.73;;
20318;SDS011;10317;47.254;11.314;2023-07-09T14:56:58;1.98;;;1.83;;
20318;SDS011;10317;47.254;11.314;2023-07-09T14:59:24;1.80;;;1.70;;
20318;SDS011;10317;47.254;11.314;2023-07-09T15:01:53;2.60;;;1.92;;
20318;SDS011;10317;47.254;11.314;2023-07-09T15:06:50;2.95;;;1.80;;
20318;SDS011;10317;47.254;11.314;2023-07-09T15:09:22;5.22;;;2.00;;
20318;SDS011;10317;47.254;11.314;2023-07-09T15:11:51;5.55;;;2.20;;
20318;SDS011;10317;47.254;11.314;2023-07-09T15:14:21;3.10;;;2.03;;
20318;SDS011;10317;47.254;11.314;2023-07-09T15:16:49;3.35;;;2.25;;
20318;SDS011;10317;47.254;11.314;2023-07-09T15:19:39;2.42;;;1.77;;
20318;SDS011;10317;47.254;11.314;2023-07-09T15:22:10;2.55;;;2.35;;
20318;SDS011;10317;47.254;11.314;2023-07-09T15:24:46;2.92;;;2.60;;
20318;SDS011;10317;47.254;11.314;2023-07-09T15:29:53;5.28;;;2.42;;
20318;SDS011;10317;47.254;11.314;2023-07-09T15:32:19;2.90;;;2.70;;
20318;SDS011;10317;47.254;11.314;2023-07-09T15:34:45;3.55;;;2.70;;
20318;SDS011;10317;47.254;11.314;2023-07-09T15:37:12;2.70;;;2.38;;
20318;SDS011;10317;47.254;11.314;2023-07-09T15:39:40;3.97;;;2.33;;
20318;SDS011;10317;47.254;11.314;2023-07-09T15:42:12;2.72;;;2.05;;
20318;SDS011;10317;47.254;11.314;2023-07-09T15:45:06;2.60;;;2.10;;
20318;SDS011;10317;47.254;11.314;2023-07-09T15:47:39;5.07;;;2.20;;
20318;SDS011;10317;47.254;11.314;2023-07-09T15:53:11;14.65;;;3.92;;
20318;SDS011;10317;47.254;11.314;2023-07-09T15:55:39;3.20;;;2.95;;
20318;SDS011;10317;47.254;11.314;2023-07-09T16:19:00;1.90;;;1.77;;
20318;SDS011;10317;47.254;11.314;2023-07-09T16:25:32;3.40;;;2.03;;
20318;SDS011;10317;47.254;11.314;2023-07-09T16:28:22;2.70;;;2.30;;
20318;SDS011;10317;47.254;11.314;2023-07-09T16:31:33;2.60;;;2.38;;
20318;SDS011;10317;47.254;11.314;2023-07-09T17:27:09;3.72;;;2.28;;
20318;SDS011;10317;47.254;11.314;2023-07-09T17:29:37;3.17;;;2.75;;
20318;SDS011;10317;47.254;11.314;2023-07-09T17:32:09;4.80;;;2.88;;
20318;SDS011;10317;47.254;11.314;2023-07-09T17:34:43;4.65;;;2.95;;
20318;SDS011;10317;47.254;11.314;2023-07-09T17:37:13;5.57;;;2.92;;
20318;SDS011;10317;47.254;11.314;2023-07-09T17:39:40;4.28;;;2.30;;
20318;SDS011;10317;47.254;11.314;2023-07-09T17:42:14;3.15;;;2.38;;
20318;SDS011;10317;47.254;11.314;2023-07-09T17:44:46;7.57;;;2.17;;
20318;SDS011;10317;47.254;11.314;2023-07-09T17:47:15;4.90;;;2.28;;
20318;SDS011;10317;47.254;11.314;2023-07-09T17:49:43;3.38;;;2.20;;
20318;SDS011;10317;47.254;11.314;2023-07-09T17:52:17;5.00;;;2.08;;
20318;SDS011;10317;47.254;11.314;2023-07-09T17:54:44;4.10;;;2.38;;
20318;SDS011;10317;47.254;11.314;2023-07-09T17:57:25;4.65;;;2.80;;
20318;SDS011;10317;47.254;11.314;2023-07-09T17:59:51;6.05;;;2.38;;
20318;SDS011;10317;47.254;11.314;2023-07-09T18:02:21;4.53;;;3.17;;
20318;SDS011;10317;47.254;11.314;2023-07-09T18:04:54;4.20;;;3.00;;
20318;SDS011;10317;47.254;11.314;2023-07-09T18:07:27;4.13;;;3.03;;
20318;SDS011;10317;47.254;11.314;2023-07-09T18:20:21;5.10;;;2.75;;
20318;SDS011;10317;47.254;11.314;2023-07-09T19:08:30;2.95;;;2.22;;